Saratoga, Wyoming
Current Conditions -  °F | °C
As of 1:15 PM on Wednesday 28 Jan 2015 (Local Time) from KSAA Reporting Station
Scattered Clouds Scattered Clouds  
Wind Chill: 34°   Ceiling: Unl
Heat Index: 43°   Visibility: 10mi
Dew Point: 30°   Wind: 23mph
Humidity: 61%   Direction: 250°WSW
Pressure: 30.2"   Gusts: 32mph
Location:  41.45°N, 106.81°W
Report Text: KSAA 282015Z AUTO 25020G28KT 10SM SCT047 06/M01 A3020 RMK AO2
Loading
Personal Weather Stations






























Interactive Weather Map New forecast layout! Learn more

10-Day Weather Forecast

Advertisements
Track Severe Weather on mobile